Time;durP1;ratioP1;P1;durP2;ratioP2;P2;SDS_P1;SDS_P2;PMS_P1;PMS_P2;Temp;Humidity;BMP_temperature;BMP_pressure;BME280_temperature;BME280_humidity;BME280_pressure;Samples;Min_cycle;Max_cycle;Signal;HPM_P1;HPM_P2
2022/10/14 00:01:30;;;;;;;;;;;20.40;70.10;;;;;;5020178;28;813;-67
2022/10/14 00:03:55;;;;;;;;;;;20.40;70.90;;;;;;5021862;28;942;-67
2022/10/14 00:06:27;;;;;;;;;;;20.40;70.10;;;;;;5022678;28;891;-67
2022/10/14 00:08:53;;;;;;;;;;;20.40;70.10;;;;;;5022125;28;1344;-67
2022/10/14 00:11:20;;;;;;;;;;;20.40;70.20;;;;;;5004967;28;1026;-66
2022/10/14 00:13:45;;;;;;;;;;;20.40;70.10;;;;;;5005308;28;907;-67
2022/10/14 00:16:18;;;;;;;;;;;20.40;70.20;;;;;;5003114;28;939;-66
2022/10/14 00:18:43;;;;;;;;;;;20.40;70.10;;;;;;5001646;28;1902;-67
2022/10/14 00:21:09;;;;;;;;;;;20.40;70.20;;;;;;5005723;28;998;-67
2022/10/14 00:23:34;;;;;;;;;;;20.40;70.10;;;;;;5006591;28;1077;-67
2022/10/14 00:25:59;;;;;;;;;;;20.40;70.20;;;;;;5020087;28;1089;-67
2022/10/14 00:28:25;;;;;;;;;;;20.40;70.20;;;;;;5017851;28;1467;-67
2022/10/14 00:30:57;;;;;;;;;;;20.40;70.20;;;;;;5016540;28;931;-67
2022/10/14 00:33:23;;;;;;;;;;;20.40;70.20;;;;;;5002248;28;1451;-67
2022/10/14 00:35:54;;;;;;;;;;;20.40;70.20;;;;;;5023211;28;812;-67
2022/10/14 00:38:20;;;;;;;;;;;20.40;70.20;;;;;;5021177;28;1269;-67
2022/10/14 00:40:45;;;;;;;;;;;20.40;70.20;;;;;;5020976;28;1906;-67
2022/10/14 00:43:12;;;;;;;;;;;20.40;70.20;;;;;;5019013;28;1061;-66
2022/10/14 00:45:38;;;;;;;;;;;20.40;70.20;;;;;;5017203;28;1049;-67
2022/10/14 00:48:04;;;;;;;;;;;20.40;70.20;;;;;;5003445;28;1311;-67
2022/10/14 00:50:29;;;;;;;;;;;20.40;70.20;;;;;;5024688;28;1013;-67
2022/10/14 00:52:55;;;;;;;;;;;20.40;70.20;;;;;;5022957;28;1349;-66
2022/10/14 00:55:20;;;;;;;;;;;20.40;70.20;;;;;;5021960;28;1947;-68
2022/10/14 00:57:46;;;;;;;;;;;20.40;70.30;;;;;;5019573;28;1446;-69
2022/10/14 01:00:12;;;;;;;;;;;20.40;70.30;;;;;;5024678;28;1953;-70
2022/10/14 01:02:39;;;;;;;;;;;20.40;70.30;;;;;;5003643;28;1409;-67
2022/10/14 01:05:05;;;;;;;;;;;20.40;70.30;;;;;;5004104;28;1360;-67
2022/10/14 01:07:33;;;;;;;;;;;20.40;70.20;;;;;;5003733;28;1476;-67
2022/10/14 01:09:58;;;;;;;;;;;20.40;70.30;;;;;;5006487;28;1458;-67
2022/10/14 01:12:36;;;;;;;;;;;20.40;70.20;;;;;;5020334;28;1322;-68
2022/10/14 01:15:20;;;;;;;;;;;20.40;70.30;;;;;;5006286;28;1260;-67
2022/10/14 01:17:59;;;;;;;;;;;20.40;70.30;;;;;;5007589;28;1529;-66
2022/10/14 01:20:43;;;;;;;;;;;20.40;70.30;;;;;;5004696;28;1914;-67
2022/10/14 01:23:27;;;;;;;;;;;20.40;70.30;;;;;;5023398;28;1567;-67
2022/10/14 01:26:11;;;;;;;;;;;20.40;70.30;;;;;;5025561;28;1411;-67
2022/10/14 01:28:39;;;;;;;;;;;20.40;70.30;;;;;;5023584;28;1341;-67
2022/10/14 01:31:06;;;;;;;;;;;20.40;70.30;;;;;;5021430;28;1439;-67
2022/10/14 01:33:35;;;;;;;;;;;20.40;70.30;;;;;;5006655;28;1600;-67
2022/10/14 01:36:02;;;;;;;;;;;20.40;70.40;;;;;;5004126;28;1468;-67
2022/10/14 01:38:27;;;;;;;;;;;20.40;70.30;;;;;;5002816;28;1971;-67
2022/10/14 01:40:57;;;;;;;;;;;20.40;70.30;;;;;;5020162;28;868;-67
2022/10/14 01:43:22;;;;;;;;;;;20.40;70.30;;;;;;5008508;28;1285;-67
2022/10/14 01:45:48;;;;;;;;;;;20.40;70.40;;;;;;5020489;28;1031;-67
2022/10/14 01:48:14;;;;;;;;;;;20.40;70.30;;;;;;5000356;28;1368;-67
2022/10/14 01:50:39;;;;;;;;;;;20.40;70.30;;;;;;5000964;28;925;-67
2022/10/14 01:53:06;;;;;;;;;;;20.40;70.40;;;;;;5021681;28;892;-67
2022/10/14 01:55:34;;;;;;;;;;;20.40;70.30;;;;;;5002699;28;836;-67
2022/10/14 01:57:59;;;;;;;;;;;20.30;70.30;;;;;;5005859;28;1272;-67
2022/10/14 02:00:25;;;;;;;;;;;20.30;70.30;;;;;;5018848;28;1890;-67
2022/10/14 02:02:50;;;;;;;;;;;20.30;70.30;;;;;;5016999;28;986;-67
2022/10/14 02:05:20;;;;;;;;;;;20.40;70.40;;;;;;5018936;28;1042;-67
2022/10/14 02:07:47;;;;;;;;;;;20.40;70.40;;;;;;5001809;28;1295;-67
2022/10/14 02:10:16;;;;;;;;;;;20.40;70.40;;;;;;5001791;28;891;-67
2022/10/14 02:13:00;;;;;;;;;;;20.40;70.40;;;;;;4996984;28;1030;-67
2022/10/14 02:15:44;;;;;;;;;;;20.40;70.30;;;;;;5018468;28;1053;-67
2022/10/14 02:18:28;;;;;;;;;;;20.30;70.30;;;;;;5016422;28;1279;-67
2022/10/14 02:20:55;;;;;;;;;;;20.30;70.30;;;;;;5020446;28;1007;-67
2022/10/14 02:23:22;;;;;;;;;;;20.30;70.30;;;;;;5004827;28;1368;-67
2022/10/14 02:25:48;;;;;;;;;;;20.40;70.40;;;;;;5018684;28;787;-67
2022/10/14 02:28:15;;;;;;;;;;;20.40;70.30;;;;;;5004787;28;1283;-67
2022/10/14 02:30:44;;;;;;;;;;;20.30;70.30;;;;;;5018810;28;1021;-67
2022/10/14 02:33:09;;;;;;;;;;;20.40;70.40;;;;;;5003243;28;1051;-67
2022/10/14 02:35:35;;;;;;;;;;;20.40;70.40;;;;;;5020755;28;1081;-67
2022/10/14 02:38:01;;;;;;;;;;;20.40;70.30;;;;;;5005804;28;1362;-67
2022/10/14 02:40:34;;;;;;;;;;;20.40;70.30;;;;;;5025581;28;1906;-67
2022/10/14 02:42:59;;;;;;;;;;;20.40;70.30;;;;;;5022736;28;958;-67
2022/10/14 02:45:26;;;;;;;;;;;20.40;70.40;;;;;;5022120;28;1234;-66
2022/10/14 02:47:51;;;;;;;;;;;20.40;70.30;;;;;;5019428;28;1340;-67
2022/10/14 02:50:18;;;;;;;;;;;20.30;70.30;;;;;;5018223;28;840;-67
2022/10/14 02:52:43;;;;;;;;;;;20.40;70.40;;;;;;5014115;28;911;-67
2022/10/14 02:55:09;;;;;;;;;;;20.30;70.30;;;;;;5004349;28;895;-68
2022/10/14 02:57:34;;;;;;;;;;;20.40;70.40;;;;;;5018212;28;1373;-68
2022/10/14 03:00:00;;;;;;;;;;;20.40;70.40;;;;;;5017853;28;1961;-67
2022/10/14 03:02:25;;;;;;;;;;;20.30;70.30;;;;;;5020224;28;845;-67
2022/10/14 03:04:51;;;;;;;;;;;20.40;70.30;;;;;;5002586;28;986;-67
2022/10/14 03:07:16;;;;;;;;;;;20.40;70.30;;;;;;5019077;28;1349;-67
2022/10/14 03:09:41;;;;;;;;;;;20.30;70.30;;;;;;5017625;28;1042;-67
2022/10/14 03:12:07;;;;;;;;;;;20.40;70.30;;;;;;5019168;28;1822;-67
2022/10/14 03:14:32;;;;;;;;;;;20.40;70.40;;;;;;5016293;28;1026;-67
2022/10/14 03:16:58;;;;;;;;;;;20.40;70.30;;;;;;5022449;28;1260;-67
2022/10/14 03:19:23;;;;;;;;;;;20.40;70.30;;;;;;5015393;28;1965;-66
2022/10/14 03:21:49;;;;;;;;;;;20.40;70.30;;;;;;5018615;28;770;-67
2022/10/14 03:24:14;;;;;;;;;;;20.40;70.30;;;;;;5020972;28;815;-68
2022/10/14 03:26:40;;;;;;;;;;;20.40;71.00;;;;;;5005385;28;860;-68
2022/10/14 03:29:05;;;;;;;;;;;20.40;70.30;;;;;;5019975;28;1294;-67
2022/10/14 03:31:30;;;;;;;;;;;20.40;70.20;;;;;;5021390;28;1105;-67
2022/10/14 03:33:56;;;;;;;;;;;20.40;70.20;;;;;;5020822;28;881;-67
2022/10/14 03:36:21;;;;;;;;;;;20.40;70.20;;;;;;5021197;28;943;-67
2022/10/14 03:38:47;;;;;;;;;;;20.40;70.10;;;;;;5016466;28;1915;-67
2022/10/14 03:41:12;;;;;;;;;;;20.40;70.10;;;;;;5017975;28;975;-67
2022/10/14 03:43:38;;;;;;;;;;;20.50;70.00;;;;;;5018260;28;897;-67
2022/10/14 03:46:03;;;;;;;;;;;20.50;70.00;;;;;;5020941;28;947;-68
2022/10/14 03:48:29;;;;;;;;;;;20.40;69.80;;;;;;5023772;28;1245;-67
2022/10/14 03:50:54;;;;;;;;;;;20.50;69.80;;;;;;5022862;28;883;-67
2022/10/14 03:53:19;;;;;;;;;;;20.50;69.80;;;;;;5024941;28;930;-67
2022/10/14 03:55:45;;;;;;;;;;;20.50;70.50;;;;;;5021856;28;896;-68
2022/10/14 03:58:10;;;;;;;;;;;20.50;69.70;;;;;;5019699;28;1342;-68
2022/10/14 04:00:36;;;;;;;;;;;20.50;69.70;;;;;;5005109;28;1899;-67
2022/10/14 04:03:01;;;;;;;;;;;20.50;69.60;;;;;;5020019;28;951;-68
2022/10/14 04:05:32;;;;;;;;;;;20.60;69.60;;;;;;5022590;28;784;-68
2022/10/14 04:07:58;;;;;;;;;;;20.50;69.50;;;;;;5021365;28;1322;-68
2022/10/14 04:10:24;;;;;;;;;;;20.60;69.60;;;;;;5018597;28;1006;-68
2022/10/14 04:12:49;;;;;;;;;;;20.60;69.50;;;;;;5022552;28;1047;-67
2022/10/14 04:15:15;;;;;;;;;;;20.60;69.50;;;;;;5021341;28;816;-67
2022/10/14 04:17:40;;;;;;;;;;;20.60;69.40;;;;;;5023073;28;1204;-67
2022/10/14 04:20:06;;;;;;;;;;;20.60;69.40;;;;;;5021826;28;1898;-67
2022/10/14 04:22:32;;;;;;;;;;;20.60;69.40;;;;;;5020694;28;785;-68
2022/10/14 04:24:57;;;;;;;;;;;20.60;69.40;;;;;;5019261;28;843;-67
2022/10/14 04:27:23;;;;;;;;;;;20.60;69.30;;;;;;5023778;28;1369;-68
2022/10/14 04:29:48;;;;;;;;;;;20.60;69.20;;;;;;5005439;28;1317;-67
2022/10/14 04:32:14;;;;;;;;;;;20.70;69.30;;;;;;5017380;28;1046;-67
2022/10/14 04:34:39;;;;;;;;;;;20.60;69.20;;;;;;5016212;28;914;-67
2022/10/14 04:37:05;;;;;;;;;;;20.70;69.20;;;;;;5025437;28;1299;-67
2022/10/14 04:39:30;;;;;;;;;;;20.70;69.20;;;;;;5022408;28;1891;-67
2022/10/14 04:41:56;;;;;;;;;;;20.60;69.20;;;;;;5018736;28;999;-67
2022/10/14 04:44:21;;;;;;;;;;;20.60;69.10;;;;;;5018648;28;1005;-67
2022/10/14 04:46:46;;;;;;;;;;;20.60;69.20;;;;;;5017498;28;1018;-67
2022/10/14 04:49:13;;;;;;;;;;;20.70;69.30;;;;;;5022955;28;1240;-67
2022/10/14 04:51:39;;;;;;;;;;;20.60;69.20;;;;;;5027143;28;878;-67
2022/10/14 04:54:04;;;;;;;;;;;20.60;70.00;;;;;;5025528;28;991;-67
2022/10/14 04:56:29;;;;;;;;;;;20.60;69.20;;;;;;5020451;28;900;-68
2022/10/14 04:58:55;;;;;;;;;;;20.60;69.20;;;;;;5017870;28;1961;-68
2022/10/14 05:01:20;;;;;;;;;;;20.60;69.20;;;;;;5018546;28;959;-68
2022/10/14 05:03:47;;;;;;;;;;;20.60;69.30;;;;;;5021897;28;880;-68
2022/10/14 05:06:12;;;;;;;;;;;20.60;69.20;;;;;;5027386;28;839;-66
2022/10/14 05:08:38;;;;;;;;;;;20.60;69.20;;;;;;5003367;28;1271;-66
2022/10/14 05:11:03;;;;;;;;;;;20.60;69.20;;;;;;5020594;28;880;-66
2022/10/14 05:13:29;;;;;;;;;;;20.60;69.30;;;;;;5020587;28;777;-68
2022/10/14 05:15:54;;;;;;;;;;;20.70;69.20;;;;;;5008035;28;793;-67
2022/10/14 05:18:20;;;;;;;;;;;20.60;69.20;;;;;;5023893;28;1275;-66
2022/10/14 05:20:45;;;;;;;;;;;20.70;69.20;;;;;;5018553;28;1914;-68
2022/10/14 05:23:11;;;;;;;;;;;20.60;69.20;;;;;;5017696;28;871;-67
2022/10/14 05:25:36;;;;;;;;;;;20.70;69.20;;;;;;5022988;28;1084;-67
2022/10/14 05:28:02;;;;;;;;;;;20.70;69.20;;;;;;5020540;28;1330;-68
2022/10/14 05:30:27;;;;;;;;;;;20.70;69.30;;;;;;5022060;28;1003;-67
2022/10/14 05:32:52;;;;;;;;;;;20.70;69.50;;;;;;5023386;28;1426;-66
2022/10/14 05:35:18;;;;;;;;;;;20.70;69.20;;;;;;5021541;28;775;-67
2022/10/14 05:37:43;;;;;;;;;;;20.70;69.20;;;;;;5022344;28;1271;-66
2022/10/14 05:40:09;;;;;;;;;;;20.70;69.20;;;;;;5018885;28;1914;-67
2022/10/14 05:42:34;;;;;;;;;;;20.70;69.90;;;;;;5010924;28;4878;-68
2022/10/14 05:45:00;;;;;;;;;;;20.70;69.10;;;;;;5017592;28;843;-69
2022/10/14 05:47:25;;;;;;;;;;;20.70;69.10;;;;;;5020746;28;1327;-68
2022/10/14 05:49:51;;;;;;;;;;;20.70;69.20;;;;;;5019286;28;838;-69
2022/10/14 05:52:16;;;;;;;;;;;20.70;69.10;;;;;;5020719;28;911;-66
2022/10/14 05:54:42;;;;;;;;;;;20.70;69.10;;;;;;5018814;28;1078;-68
2022/10/14 05:57:07;;;;;;;;;;;20.70;69.20;;;;;;5018076;28;1260;-67
2022/10/14 05:59:33;;;;;;;;;;;20.70;69.10;;;;;;5019806;28;1962;-66
2022/10/14 06:01:59;;;;;;;;;;;20.60;69.10;;;;;;5005517;28;903;-67
2022/10/14 06:04:24;;;;;;;;;;;20.70;69.20;;;;;;5018883;28;1006;-66
2022/10/14 06:06:50;;;;;;;;;;;20.70;69.20;;;;;;5020886;28;975;-66
2022/10/14 06:09:15;;;;;;;;;;;20.70;69.20;;;;;;5024109;28;1233;-66
2022/10/14 06:11:41;;;;;;;;;;;20.70;69.20;;;;;;5003401;28;921;-66
2022/10/14 06:14:06;;;;;;;;;;;20.70;69.20;;;;;;5016692;28;877;-67
2022/10/14 06:16:32;;;;;;;;;;;20.60;69.10;;;;;;5017501;28;884;-66
2022/10/14 06:18:57;;;;;;;;;;;20.70;69.20;;;;;;5019084;28;1910;-66
2022/10/14 06:21:25;;;;;;;;;;;20.60;69.10;;;;;;5011264;28;1142;-67
2022/10/14 06:23:50;;;;;;;;;;;20.70;69.20;;;;;;5019368;28;931;-67
2022/10/14 06:26:15;;;;;;;;;;;20.70;69.30;;;;;;5022035;28;832;-68
2022/10/14 06:28:41;;;;;;;;;;;20.60;69.20;;;;;;5015652;28;1614;-68
2022/10/14 06:31:06;;;;;;;;;;;20.70;69.20;;;;;;5016977;28;839;-68
2022/10/14 06:33:32;;;;;;;;;;;20.60;69.20;;;;;;5016516;28;1535;-70
2022/10/14 06:35:57;;;;;;;;;;;20.70;69.20;;;;;;5018627;28;852;-69
2022/10/14 06:38:23;;;;;;;;;;;20.60;69.50;;;;;;5018285;28;1326;-69
2022/10/14 06:40:49;;;;;;;;;;;20.60;69.20;;;;;;5017174;28;1910;-69
2022/10/14 06:43:14;;;;;;;;;;;20.70;69.20;;;;;;5015401;28;869;-69
2022/10/14 06:45:40;;;;;;;;;;;20.60;69.20;;;;;;5006537;28;924;-69
2022/10/14 06:48:05;;;;;;;;;;;20.60;69.10;;;;;;5018186;28;1273;-70
2022/10/14 06:50:31;;;;;;;;;;;20.60;69.20;;;;;;5019005;28;827;-69
2022/10/14 06:52:56;;;;;;;;;;;20.70;69.20;;;;;;5020442;28;818;-67
2022/10/14 06:55:21;;;;;;;;;;;20.70;69.20;;;;;;5009435;28;1258;-67
2022/10/14 06:57:47;;;;;;;;;;;20.60;69.10;;;;;;5017292;28;1312;-67
2022/10/14 07:00:12;;;;;;;;;;;20.60;69.20;;;;;;5003035;28;1968;-67
2022/10/14 07:02:38;;;;;;;;;;;20.70;69.30;;;;;;5015349;28;892;-67
2022/10/14 07:05:03;;;;;;;;;;;20.70;69.20;;;;;;5025907;28;896;-67
2022/10/14 07:07:30;;;;;;;;;;;20.70;69.20;;;;;;5016278;28;1359;-67
2022/10/14 07:09:56;;;;;;;;;;;20.70;69.20;;;;;;5021726;28;956;-67
2022/10/14 07:12:22;;;;;;;;;;;20.70;69.20;;;;;;5014544;28;898;-67
2022/10/14 07:14:47;;;;;;;;;;;20.70;69.20;;;;;;5019923;28;722;-68
2022/10/14 07:17:13;;;;;;;;;;;20.70;69.20;;;;;;5032320;28;1213;-67
2022/10/14 07:19:38;;;;;;;;;;;20.70;69.10;;;;;;5021872;28;1910;-67
2022/10/14 07:22:04;;;;;;;;;;;20.70;69.10;;;;;;5034172;28;872;-68
2022/10/14 07:24:29;;;;;;;;;;;20.70;69.10;;;;;;5036030;28;990;-67
2022/10/14 07:26:54;;;;;;;;;;;20.70;69.10;;;;;;5027071;28;1276;-67
2022/10/14 07:29:20;;;;;;;;;;;20.70;69.20;;;;;;5036355;28;905;-68
2022/10/14 07:31:46;;;;;;;;;;;20.70;69.10;;;;;;5034515;28;863;-67
2022/10/14 07:34:11;;;;;;;;;;;20.70;69.20;;;;;;5018038;28;848;-67
2022/10/14 07:36:37;;;;;;;;;;;20.70;69.20;;;;;;5017142;28;880;-67
2022/10/14 07:39:03;;;;;;;;;;;20.70;69.20;;;;;;5017235;28;1910;-67
2022/10/14 07:41:28;;;;;;;;;;;20.70;69.20;;;;;;5011455;28;847;-67
2022/10/14 07:43:56;;;;;;;;;;;20.70;69.10;;;;;;5018338;28;824;-69
2022/10/14 07:46:28;;;;;;;;;;;20.70;69.10;;;;;;5010255;28;907;-67
2022/10/14 07:48:57;;;;;;;;;;;20.70;69.10;;;;;;5023259;28;1376;-67
2022/10/14 07:51:23;;;;;;;;;;;20.70;69.10;;;;;;5003565;28;1412;-67
2022/10/14 07:53:49;;;;;;;;;;;20.70;69.10;;;;;;5009574;28;1641;-68
2022/10/14 07:56:14;;;;;;;;;;;20.70;69.10;;;;;;5024572;28;1638;-68
2022/10/14 07:58:40;;;;;;;;;;;20.70;69.10;;;;;;5023219;28;2034;-68
2022/10/14 08:01:05;;;;;;;;;;;20.70;69.10;;;;;;5025203;28;2024;-67
2022/10/14 08:03:30;;;;;;;;;;;20.70;69.10;;;;;;5004468;28;1931;-68
2022/10/14 08:06:03;;;;;;;;;;;20.70;69.10;;;;;;5020022;28;1452;-68
2022/10/14 08:08:28;;;;;;;;;;;20.70;69.10;;;;;;5020859;28;1286;-68
2022/10/14 08:11:07;;;;;;;;;;;20.70;69.10;;;;;;5024068;28;948;-67
2022/10/14 08:13:32;;;;;;;;;;;20.70;69.10;;;;;;5016983;28;852;-68
2022/10/14 08:15:58;;;;;;;;;;;20.70;69.10;;;;;;5020468;28;935;-67
2022/10/14 08:18:24;;;;;;;;;;;20.70;69.10;;;;;;5021787;28;1257;-68
2022/10/14 08:20:50;;;;;;;;;;;20.70;69.10;;;;;;5003259;28;1899;-68
2022/10/14 08:23:15;;;;;;;;;;;20.70;69.10;;;;;;5021454;28;877;-66
2022/10/14 08:25:40;;;;;;;;;;;20.70;69.10;;;;;;5021740;28;924;-68
2022/10/14 08:28:06;;;;;;;;;;;20.70;69.10;;;;;;5004007;28;1393;-68
2022/10/14 08:30:31;;;;;;;;;;;20.70;69.00;;;;;;5019756;28;896;-69
2022/10/14 08:32:58;;;;;;;;;;;20.70;69.00;;;;;;5022090;28;946;-68
2022/10/14 08:35:24;;;;;;;;;;;20.80;69.00;;;;;;5020242;28;903;-67
2022/10/14 08:37:58;;;;;;;;;;;20.80;69.00;;;;;;5020104;28;1217;-68
2022/10/14 08:40:24;;;;;;;;;;;20.80;69.00;;;;;;5019404;28;1967;-68
2022/10/14 08:42:52;;;;;;;;;;;20.80;69.00;;;;;;5020755;28;844;-68
2022/10/14 08:45:24;;;;;;;;;;;20.80;69.00;;;;;;5005041;28;1109;-68
2022/10/14 08:47:49;;;;;;;;;;;20.80;68.90;;;;;;5004030;28;1360;-67
2022/10/14 08:50:22;;;;;;;;;;;20.80;68.90;;;;;;5005452;28;1140;-68
2022/10/14 08:52:52;;;;;;;;;;;20.80;69.00;;;;;;5005242;28;790;-67
2022/10/14 08:55:18;;;;;;;;;;;20.80;69.00;;;;;;5003293;28;899;-68
2022/10/14 08:57:47;;;;;;;;;;;20.80;69.00;;;;;;5015546;28;1253;-68
2022/10/14 09:00:12;;;;;;;;;;;20.80;69.00;;;;;;5005782;28;1923;-68
2022/10/14 09:02:48;;;;;;;;;;;20.80;69.00;;;;;;5020400;28;880;-67
2022/10/14 09:05:14;;;;;;;;;;;20.80;69.10;;;;;;5000626;28;1014;-68
2022/10/14 09:07:39;;;;;;;;;;;20.80;69.10;;;;;;5003724;28;1238;-68
2022/10/14 09:10:06;;;;;;;;;;;20.70;69.10;;;;;;5003342;28;1957;-68
2022/10/14 09:12:33;;;;;;;;;;;20.80;69.10;;;;;;5009184;28;836;-68
2022/10/14 09:14:59;;;;;;;;;;;20.80;69.10;;;;;;5019781;28;844;-69
2022/10/14 09:17:25;;;;;;;;;;;20.80;69.10;;;;;;5006768;28;1429;-67
2022/10/14 09:19:53;;;;;;;;;;;20.70;69.10;;;;;;5005559;28;1918;-68
2022/10/14 09:22:18;;;;;;;;;;;20.70;69.10;;;;;;5019435;28;1034;-67
2022/10/14 09:24:47;;;;;;;;;;;20.70;69.10;;;;;;5020222;28;942;-67
2022/10/14 09:27:16;;;;;;;;;;;20.70;69.10;;;;;;5004877;28;1293;-67
2022/10/14 09:29:45;;;;;;;;;;;20.70;69.10;;;;;;5002674;28;864;-67
2022/10/14 09:32:13;;;;;;;;;;;20.70;69.10;;;;;;5004015;28;1066;-67
2022/10/14 09:34:40;;;;;;;;;;;20.70;69.20;;;;;;5016688;28;888;-68
2022/10/14 09:37:18;;;;;;;;;;;20.70;69.20;;;;;;5017878;28;1381;-67
2022/10/14 09:39:44;;;;;;;;;;;20.70;69.30;;;;;;5020827;28;1898;-67
2022/10/14 09:42:14;;;;;;;;;;;20.70;69.40;;;;;;5019542;28;861;-67
2022/10/14 09:44:39;;;;;;;;;;;20.70;69.50;;;;;;5014737;28;1939;-67
2022/10/14 09:47:05;;;;;;;;;;;20.70;69.40;;;;;;5020249;28;1489;-66
2022/10/14 09:49:32;;;;;;;;;;;20.70;69.50;;;;;;5005813;28;1531;-67
2022/10/14 09:51:58;;;;;;;;;;;20.70;69.50;;;;;;5007436;28;1461;-67
2022/10/14 09:54:24;;;;;;;;;;;20.70;69.50;;;;;;5019299;28;1445;-67
2022/10/14 09:56:49;;;;;;;;;;;20.70;69.50;;;;;;5007068;28;856;-67
2022/10/14 09:59:16;;;;;;;;;;;20.70;69.50;;;;;;5002182;28;1890;-68
2022/10/14 10:01:47;;;;;;;;;;;20.70;69.50;;;;;;5000205;28;875;-67
2022/10/14 10:04:28;;;;;;;;;;;20.70;69.50;;;;;;5018382;28;1300;-69
2022/10/14 10:06:54;;;;;;;;;;;20.70;70.40;;;;;;5003540;28;1272;-67
2022/10/14 10:09:20;;;;;;;;;;;20.70;69.60;;;;;;5019801;28;825;-68
2022/10/14 10:11:45;;;;;;;;;;;20.60;69.60;;;;;;5020143;28;832;-67
2022/10/14 10:14:13;;;;;;;;;;;20.70;69.60;;;;;;5019297;28;1034;-67
2022/10/14 10:16:39;;;;;;;;;;;20.70;69.60;;;;;;5019820;28;891;-67
2022/10/14 10:19:23;;;;;;;;;;;20.70;69.70;;;;;;5019612;28;1910;-67
2022/10/14 10:21:49;;;;;;;;;;;20.70;69.60;;;;;;5019183;28;848;-67
2022/10/14 10:24:20;;;;;;;;;;;20.60;69.60;;;;;;5019283;28;1285;-67
2022/10/14 10:26:46;;;;;;;;;;;20.60;69.00;;;;;;5018568;28;796;-67
2022/10/14 10:29:21;;;;;;;;;;;20.60;68.50;;;;;;5020654;28;1327;-68
2022/10/14 10:31:55;;;;;;;;;;;20.60;68.30;;;;;;5004784;28;1497;-68
2022/10/14 10:34:41;;;;;;;;;;;20.60;67.70;;;;;;5008440;28;903;-67
2022/10/14 10:37:10;;;;;;;;;;;20.60;67.50;;;;;;5005731;28;1290;-66
2022/10/14 10:39:36;;;;;;;;;;;20.60;67.60;;;;;;5019222;28;1890;-67
2022/10/14 10:42:11;;;;;;;;;;;20.50;67.00;;;;;;5019241;28;843;-67
2022/10/14 10:44:40;;;;;;;;;;;20.60;67.30;;;;;;5018976;28;1279;-68
2022/10/14 10:47:05;;;;;;;;;;;20.60;67.30;;;;;;5018822;28;1261;-68
2022/10/14 10:49:37;;;;;;;;;;;20.50;66.90;;;;;;5018967;28;879;-68
2022/10/14 10:52:11;;;;;;;;;;;20.50;66.90;;;;;;5015952;28;828;-68
2022/10/14 10:54:39;;;;;;;;;;;20.50;66.30;;;;;;5019350;28;797;-68
2022/10/14 10:57:08;;;;;;;;;;;20.50;66.10;;;;;;5005567;28;1344;-68
2022/10/14 10:59:54;;;;;;;;;;;20.50;66.40;;;;;;5023711;28;1886;-68
2022/10/14 11:02:38;;;;;;;;;;;20.50;65.80;;;;;;4994511;28;1098;-68
2022/10/14 11:05:09;;;;;;;;;;;20.50;65.90;;;;;;5019331;28;824;-68
2022/10/14 11:13:27;;;;;;;;;;;20.50;65.20;;;;;;5010287;28;738;-67
2022/10/14 11:15:52;;;;;;;;;;;20.40;65.10;;;;;;5022492;28;820;-67
2022/10/14 11:18:27;;;;;;;;;;;20.40;65.40;;;;;;5022452;28;1275;-67
2022/10/14 11:20:59;;;;;;;;;;;20.40;64.90;;;;;;5021609;28;1938;-67
2022/10/14 11:23:34;;;;;;;;;;;20.40;65.10;;;;;;5005110;28;889;-67
2022/10/14 11:26:02;;;;;;;;;;;20.40;65.10;;;;;;5021423;28;925;-67
2022/10/14 11:28:31;;;;;;;;;;;20.40;65.10;;;;;;5004791;28;1380;-67
2022/10/14 11:31:15;;;;;;;;;;;20.40;65.10;;;;;;5005485;28;860;-67
2022/10/14 11:34:07;;;;;;;;;;;20.40;65.40;;;;;;5021424;28;862;-67
2022/10/14 11:36:32;;;;;;;;;;;20.40;65.40;;;;;;4984827;28;1231;-67
2022/10/14 11:39:04;;;;;;;;;;;20.40;65.40;;;;;;5021803;28;1902;-67
2022/10/14 11:41:48;;;;;;;;;;;20.40;65.10;;;;;;5021122;28;903;-67
2022/10/14 11:44:14;;;;;;;;;;;20.40;65.30;;;;;;5020132;28;820;-67
2022/10/14 11:46:41;;;;;;;;;;;20.40;65.00;;;;;;5003649;28;825;-67
2022/10/14 11:49:15;;;;;;;;;;;20.40;65.50;;;;;;5002885;28;1263;-67
2022/10/14 11:52:10;;;;;;;;;;;20.40;65.20;;;;;;5004966;28;1038;-67
2022/10/14 11:54:41;;;;;;;;;;;20.30;65.00;;;;;;5003897;28;1465;-68
2022/10/14 11:57:11;;;;;;;;;;;20.30;64.60;;;;;;5005163;28;1287;-67
2022/10/14 11:59:43;;;;;;;;;;;20.40;64.50;;;;;;5007635;28;1966;-67
2022/10/14 12:02:27;;;;;;;;;;;20.30;63.80;;;;;;5021596;28;971;-67
2022/10/14 12:04:55;;;;;;;;;;;20.30;64.60;;;;;;5019101;28;823;-68
2022/10/14 12:07:23;;;;;;;;;;;20.30;63.70;;;;;;5003098;28;1220;-68
2022/10/14 12:10:25;;;;;;;;;;;20.30;64.00;;;;;;5007782;28;837;-68
2022/10/14 12:12:51;;;;;;;;;;;20.30;64.50;;;;;;4943982;29;1165;-68
2022/10/14 12:15:20;;;;;;;;;;;20.30;64.50;;;;;;4986708;28;1088;-68
2022/10/14 12:17:50;;;;;;;;;;;20.30;63.80;;;;;;5001206;28;1254;-68
2022/10/14 12:20:18;;;;;;;;;;;20.30;64.80;;;;;;5005551;28;1898;-68
2022/10/14 12:22:43;;;;;;;;;;;20.30;64.60;;;;;;5022835;28;1265;-68
2022/10/14 12:25:11;;;;;;;;;;;20.30;64.30;;;;;;5002396;28;978;-68
2022/10/14 12:27:37;;;;;;;;;;;20.30;64.30;;;;;;5003958;28;1282;-68
2022/10/14 12:30:02;;;;;;;;;;;20.30;64.40;;;;;;5019650;28;895;-69
2022/10/14 12:32:29;;;;;;;;;;;20.30;64.50;;;;;;5007057;28;1427;-68
2022/10/14 12:35:00;;;;;;;;;;;20.30;64.10;;;;;;5003051;28;868;-68
2022/10/14 12:37:30;;;;;;;;;;;20.30;64.80;;;;;;5004445;28;2169;-68
2022/10/14 12:40:02;;;;;;;;;;;20.30;64.30;;;;;;5021149;28;1958;-68
2022/10/14 12:42:31;;;;;;;;;;;20.30;64.10;;;;;;5021417;28;1408;-67
2022/10/14 12:44:57;;;;;;;;;;;20.30;64.20;;;;;;5004829;28;840;-68
2022/10/14 12:47:23;;;;;;;;;;;20.20;64.20;;;;;;5003475;28;1321;-67
2022/10/14 12:49:50;;;;;;;;;;;20.20;64.50;;;;;;5021202;28;852;-69
2022/10/14 12:52:17;;;;;;;;;;;20.30;64.10;;;;;;5007192;28;866;-68
2022/10/14 12:54:46;;;;;;;;;;;20.20;63.90;;;;;;5022569;28;1046;-68
2022/10/14 12:57:21;;;;;;;;;;;20.20;63.30;;;;;;4999466;28;1278;-68
2022/10/14 12:59:50;;;;;;;;;;;20.20;63.50;;;;;;5004527;28;1962;-68
2022/10/14 13:02:24;;;;;;;;;;;20.20;63.80;;;;;;5004453;28;817;-68
2022/10/14 13:04:50;;;;;;;;;;;20.20;63.30;;;;;;5018128;28;1213;-68
2022/10/14 13:07:16;;;;;;;;;;;20.20;63.00;;;;;;5001475;28;1242;-68
2022/10/14 13:09:42;;;;;;;;;;;20.20;63.10;;;;;;5018987;28;865;-68
2022/10/14 13:12:11;;;;;;;;;;;20.20;63.20;;;;;;5019710;28;875;-68
2022/10/14 13:14:54;;;;;;;;;;;20.20;63.80;;;;;;5016656;28;998;-68
2022/10/14 13:17:27;;;;;;;;;;;20.20;63.60;;;;;;5019584;28;1250;-68
2022/10/14 13:19:52;;;;;;;;;;;20.20;62.80;;;;;;4996520;28;4074;-68
2022/10/14 13:22:27;;;;;;;;;;;20.20;63.10;;;;;;5019613;28;1046;-68
2022/10/14 13:24:52;;;;;;;;;;;20.20;63.70;;;;;;5017112;28;842;-68
2022/10/14 13:27:21;;;;;;;;;;;20.10;63.10;;;;;;5020638;28;1330;-68
2022/10/14 13:29:55;;;;;;;;;;;20.20;63.40;;;;;;5004221;28;2117;-68
2022/10/14 13:35:16;;;;;;;;;;;20.20;63.60;;;;;;5653286;23;2013;-70
2022/10/14 13:37:52;;;;;;;;;;;20.20;63.30;;;;;;5056808;28;1548;-70
2022/10/14 13:40:23;;;;;;;;;;;20.10;63.50;;;;;;5056081;28;2074;-68
2022/10/14 13:42:50;;;;;;;;;;;20.20;63.10;;;;;;5060246;28;1401;-69
2022/10/14 13:45:15;;;;;;;;;;;20.20;63.40;;;;;;5056591;28;1378;-69
2022/10/14 13:47:42;;;;;;;;;;;20.10;63.10;;;;;;5052657;28;1245;-69
2022/10/14 13:50:08;;;;;;;;;;;20.20;63.40;;;;;;5055593;28;893;-69
2022/10/14 13:52:34;;;;;;;;;;;20.10;63.00;;;;;;5053698;28;1021;-70
2022/10/14 13:55:16;;;;;;;;;;;20.20;64.30;;;;;;5053789;28;1492;-69
2022/10/14 13:57:41;;;;;;;;;;;20.20;63.50;;;;;;5053783;28;954;-69
2022/10/14 14:00:25;;;;;;;;;;;20.10;63.00;;;;;;5048721;28;1955;-70
2022/10/14 14:02:51;;;;;;;;;;;20.10;63.20;;;;;;5053630;28;875;-70
2022/10/14 14:05:16;;;;;;;;;;;20.20;63.20;;;;;;5055376;28;1253;-70
2022/10/14 14:07:41;;;;;;;;;;;20.10;63.20;;;;;;5053495;28;938;-70
2022/10/14 14:10:07;;;;;;;;;;;20.20;63.10;;;;;;5058505;28;946;-70
2022/10/14 14:12:32;;;;;;;;;;;20.10;63.30;;;;;;5057170;28;1021;-70
2022/10/14 14:14:58;;;;;;;;;;;20.10;63.20;;;;;;5055508;28;1254;-70
2022/10/14 14:17:23;;;;;;;;;;;20.10;63.50;;;;;;5056583;28;1304;-70
2022/10/14 14:19:49;;;;;;;;;;;20.10;63.20;;;;;;5056593;28;2049;-69
2022/10/14 14:22:14;;;;;;;;;;;20.10;63.10;;;;;;5058372;28;1008;-69
2022/10/14 14:24:40;;;;;;;;;;;20.20;62.80;;;;;;5053639;28;1348;-70
2022/10/14 14:27:09;;;;;;;;;;;20.20;63.10;;;;;;5055457;28;1358;-70
2022/10/14 14:29:35;;;;;;;;;;;20.10;62.80;;;;;;5060620;28;955;-70
2022/10/14 14:32:00;;;;;;;;;;;20.10;63.10;;;;;;5057766;28;1313;-69
2022/10/14 14:34:25;;;;;;;;;;;20.10;62.60;;;;;;5057697;28;1255;-69
2022/10/14 14:36:51;;;;;;;;;;;20.10;63.30;;;;;;5055064;28;930;-69
2022/10/14 14:39:19;;;;;;;;;;;20.10;63.20;;;;;;5052666;28;1906;-69
2022/10/14 14:41:48;;;;;;;;;;;20.10;63.10;;;;;;5056250;28;1068;-69
2022/10/14 14:44:13;;;;;;;;;;;20.10;63.10;;;;;;5057467;28;1378;-68
2022/10/14 14:46:39;;;;;;;;;;;20.10;63.30;;;;;;5055413;28;1002;-68
2022/10/14 14:49:05;;;;;;;;;;;20.10;63.00;;;;;;5057122;28;1020;-68